createdAt,value
2023-05-05T00:00:42.031Z,11.30
2023-05-05T00:03:30.352Z,11.40
2023-05-05T00:06:18.973Z,11.30
2023-05-05T00:09:07.545Z,11.30
2023-05-05T00:11:54.744Z,11.30
2023-05-05T00:14:43.096Z,11.10
2023-05-05T00:17:30.431Z,11.10
2023-05-05T00:20:18.549Z,11.10
2023-05-05T00:23:07.136Z,11.00
2023-05-05T00:25:55.385Z,11.00
2023-05-05T00:28:42.590Z,11.00
2023-05-05T00:31:30.762Z,10.90
2023-05-05T00:34:18.039Z,10.70
2023-05-05T00:37:06.180Z,10.80
2023-05-05T00:39:54.750Z,10.70
2023-05-05T00:42:45.217Z,10.80
2023-05-05T00:45:33.072Z,10.70
2023-05-05T00:48:24.397Z,10.60
2023-05-05T00:51:12.499Z,10.60
2023-05-05T00:54:01.384Z,10.60
2023-05-05T00:56:50.809Z,10.50
2023-05-05T00:59:38.822Z,10.50
2023-05-05T01:02:26.137Z,10.50
2023-05-05T01:05:15.616Z,10.50
2023-05-05T01:08:19.917Z,10.40
2023-05-05T01:11:14.862Z,10.40
2023-05-05T01:14:12.030Z,10.40
2023-05-05T01:17:04.918Z,10.40
2023-05-05T01:20:06.318Z,10.30
2023-05-05T01:23:00.132Z,10.30
2023-05-05T01:26:08.932Z,10.30
2023-05-05T01:29:19.500Z,10.20
2023-05-05T01:32:11.465Z,10.30
2023-05-05T01:35:01.983Z,10.20
2023-05-05T01:37:54.537Z,10.20
2023-05-05T01:40:47.048Z,10.10
2023-05-05T01:43:35.799Z,10.10
2023-05-05T01:46:24.579Z,10.20
2023-05-05T01:49:15.684Z,10.00
2023-05-05T01:52:04.903Z,10.00
2023-05-05T01:54:53.795Z,10.10
2023-05-05T01:57:42.571Z,10.20
2023-05-05T02:00:32.563Z,10.20
2023-05-05T02:03:22.735Z,10.20
2023-05-05T02:06:13.487Z,10.20
2023-05-05T02:09:02.883Z,10.20
2023-05-05T02:11:51.001Z,10.30
2023-05-05T02:14:41.045Z,10.30
2023-05-05T02:17:30.377Z,10.30
2023-05-05T02:20:19.612Z,10.10
2023-05-05T02:23:09.306Z,10.20
2023-05-05T02:26:04.059Z,10.00
2023-05-05T02:29:01.947Z,10.10
2023-05-05T02:31:53.703Z,10.00
2023-05-05T02:34:48.142Z,10.00
2023-05-05T02:37:39.749Z,10.00
2023-05-05T02:40:31.960Z,10.00
2023-05-05T02:43:23.550Z,10.00
2023-05-05T02:46:11.813Z,10.00
2023-05-05T02:49:01.756Z,9.90
2023-05-05T02:51:49.177Z,9.90
2023-05-05T02:54:45.923Z,9.90
2023-05-05T02:57:44.799Z,10.00
2023-05-05T03:00:39.730Z,9.90
2023-05-05T03:03:37.032Z,9.80
2023-05-05T03:06:27.283Z,9.90
2023-05-05T03:09:23.247Z,9.90
2023-05-05T03:12:17.559Z,9.90
2023-05-05T03:15:16.473Z,9.90
2023-05-05T03:18:06.819Z,9.90
2023-05-05T03:20:54.580Z,9.90
2023-05-05T03:23:42.679Z,9.80
2023-05-05T03:26:37.613Z,9.80
2023-05-05T03:29:25.982Z,9.80
2023-05-05T03:32:16.394Z,9.70
2023-05-05T03:35:05.331Z,9.70
2023-05-05T03:37:55.576Z,9.80
2023-05-05T03:40:44.830Z,9.80
2023-05-05T03:43:35.592Z,9.80
2023-05-05T03:46:23.733Z,9.70
2023-05-05T03:49:12.278Z,9.70
2023-05-05T03:52:02.447Z,9.70
2023-05-05T03:54:49.909Z,9.80
2023-05-05T03:57:39.279Z,9.80
2023-05-05T04:00:27.471Z,9.80
2023-05-05T04:03:16.636Z,9.80
2023-05-05T04:06:06.036Z,9.90
2023-05-05T04:08:54.684Z,9.90
2023-05-05T04:11:41.858Z,9.90
2023-05-05T04:14:30.673Z,9.80
2023-05-05T04:17:18.066Z,9.80
2023-05-05T04:20:07.409Z,9.90
2023-05-05T04:22:56.063Z,9.90
2023-05-05T04:25:43.989Z,9.90
2023-05-05T04:28:33.058Z,10.00
2023-05-05T04:31:20.577Z,10.10
2023-05-05T04:34:08.750Z,10.20
2023-05-05T04:36:55.933Z,10.10
2023-05-05T04:39:45.547Z,10.20
2023-05-05T04:42:32.763Z,10.30
2023-05-05T04:45:20.721Z,10.40
2023-05-05T04:48:08.199Z,10.40
2023-05-05T04:50:57.020Z,10.50
2023-05-05T04:53:44.935Z,10.70
2023-05-05T04:56:34.043Z,11.00
2023-05-05T04:59:21.292Z,11.20
2023-05-05T05:02:09.427Z,11.40
2023-05-05T05:04:57.103Z,11.50
2023-05-05T05:07:44.340Z,11.70
2023-05-05T05:10:32.544Z,11.70
2023-05-05T05:13:21.641Z,11.70
2023-05-05T05:16:08.889Z,11.70
2023-05-05T05:18:57.061Z,11.70
2023-05-05T05:21:44.973Z,11.90
2023-05-05T05:24:33.158Z,12.10
2023-05-05T05:27:20.477Z,12.30
2023-05-05T05:30:12.005Z,13.10
2023-05-05T05:33:00.386Z,13.40
2023-05-05T05:35:48.030Z,13.50
2023-05-05T05:38:37.631Z,13.60
2023-05-05T05:41:25.585Z,13.60
2023-05-05T05:44:14.919Z,13.60
2023-05-05T05:47:03.472Z,13.70
2023-05-05T05:49:51.996Z,13.70
2023-05-05T05:52:40.275Z,13.90
2023-05-05T05:55:28.409Z,14.60
2023-05-05T05:58:17.077Z,14.80
2023-05-05T06:01:06.233Z,14.60
2023-05-05T06:03:54.830Z,14.50
2023-05-05T06:06:43.598Z,14.70
2023-05-05T06:09:30.746Z,14.80
2023-05-05T06:12:19.061Z,14.90
2023-05-05T06:15:07.014Z,14.80
2023-05-05T06:17:55.531Z,14.70
2023-05-05T06:20:44.861Z,14.60
2023-05-05T06:23:35.441Z,14.70
2023-05-05T06:26:25.985Z,16.10
2023-05-05T06:29:14.052Z,17.30
2023-05-05T06:32:01.239Z,18.30
2023-05-05T06:34:49.445Z,19.10
2023-05-05T06:37:38.068Z,19.40
2023-05-05T06:40:26.118Z,18.70
2023-05-05T06:43:13.291Z,19.10
2023-05-05T06:46:06.623Z,20.40
2023-05-05T06:48:53.768Z,19.90
2023-05-05T06:51:42.854Z,19.40
2023-05-05T06:54:31.609Z,19.10
2023-05-05T06:57:19.682Z,18.70
2023-05-05T07:00:11.771Z,19.90
2023-05-05T07:02:59.483Z,20.70
2023-05-05T07:05:46.688Z,21.60
2023-05-05T07:08:34.910Z,22.30
2023-05-05T07:11:23.418Z,22.40
2023-05-05T07:14:11.629Z,22.60
2023-05-05T07:16:58.822Z,22.40
2023-05-05T07:19:47.001Z,22.60
2023-05-05T07:22:34.449Z,23.00
2023-05-05T07:25:22.661Z,23.40
2023-05-05T07:28:11.456Z,23.60
2023-05-05T07:30:59.756Z,23.60
2023-05-05T07:33:46.981Z,23.60
2023-05-05T07:36:35.164Z,23.70
2023-05-05T07:39:22.355Z,24.00
2023-05-05T07:42:11.255Z,23.80
2023-05-05T07:45:00.276Z,23.90
2023-05-05T07:47:47.544Z,24.20
2023-05-05T07:50:35.612Z,24.40
2023-05-05T07:53:22.805Z,24.70
2023-05-05T07:56:11.004Z,24.70
2023-05-05T07:58:58.323Z,24.90
2023-05-05T08:01:47.784Z,24.90
2023-05-05T08:04:35.033Z,24.90
2023-05-05T08:07:23.202Z,25.00
2023-05-05T08:10:11.395Z,25.20
2023-05-05T08:12:59.122Z,25.30
2023-05-05T08:15:46.400Z,25.50
2023-05-05T08:18:37.692Z,25.40
2023-05-05T08:21:25.877Z,25.40
2023-05-05T08:24:13.033Z,25.30
2023-05-05T08:27:00.718Z,25.70
2023-05-05T08:29:47.926Z,26.00
2023-05-05T08:32:35.239Z,26.50
2023-05-05T08:35:24.318Z,26.50
2023-05-05T08:38:12.485Z,26.60
2023-05-05T08:41:00.107Z,26.60
2023-05-05T08:43:48.174Z,26.70
2023-05-05T08:46:36.515Z,27.00
2023-05-05T08:49:25.416Z,27.20
2023-05-05T08:52:15.938Z,27.20
2023-05-05T08:55:10.880Z,27.20
2023-05-05T08:58:01.011Z,27.10
2023-05-05T09:00:50.294Z,26.90
2023-05-05T09:03:38.989Z,26.70
2023-05-05T09:06:27.899Z,26.70
2023-05-05T09:09:17.049Z,26.70
2023-05-05T09:12:05.261Z,26.90
2023-05-05T09:14:52.439Z,26.90
2023-05-05T09:17:40.115Z,27.30
2023-05-05T09:20:34.507Z,27.10
2023-05-05T09:23:21.873Z,27.30
2023-05-05T09:26:10.905Z,27.40
2023-05-05T09:28:58.153Z,27.50
2023-05-05T09:32:05.975Z,27.60
2023-05-05T09:35:00.310Z,27.50
2023-05-05T09:37:48.845Z,27.90
2023-05-05T09:40:46.563Z,28.00
2023-05-05T09:43:51.839Z,27.90
2023-05-05T09:46:49.365Z,27.90
2023-05-05T09:49:38.601Z,27.80
2023-05-05T09:52:25.888Z,27.90
2023-05-05T09:55:18.204Z,27.90
2023-05-05T09:58:19.101Z,27.80
2023-05-05T10:01:22.745Z,28.00
2023-05-05T10:04:22.928Z,28.30
2023-05-05T10:07:22.623Z,28.40
2023-05-05T10:10:12.049Z,28.40
2023-05-05T10:13:00.003Z,28.50
2023-05-05T10:15:50.469Z,28.70
2023-05-05T10:18:46.222Z,28.70
2023-05-05T10:21:38.013Z,28.70
2023-05-05T10:24:34.275Z,29.00
2023-05-05T10:27:24.297Z,28.90
2023-05-05T10:30:21.003Z,28.50
2023-05-05T10:33:31.604Z,28.40
2023-05-05T10:36:22.000Z,28.40
2023-05-05T10:39:10.776Z,28.30
2023-05-05T10:42:02.268Z,28.20
2023-05-05T10:44:49.809Z,28.30
2023-05-05T10:47:38.447Z,28.00
2023-05-05T10:50:33.664Z,28.00
2023-05-05T10:53:26.484Z,27.60
2023-05-05T10:56:25.319Z,27.50
2023-05-05T10:59:40.812Z,27.60
2023-05-05T11:02:29.819Z,27.60
2023-05-05T11:05:21.066Z,28.00
2023-05-05T11:08:27.658Z,28.20
2023-05-05T11:11:14.818Z,28.50
2023-05-05T11:14:21.216Z,27.90
2023-05-05T11:17:48.101Z,27.10
2023-05-05T11:21:05.387Z,26.60
2023-05-05T11:23:52.794Z,26.60
2023-05-05T11:26:51.579Z,26.50
2023-05-05T11:30:07.561Z,26.80
2023-05-05T11:33:28.418Z,27.50
2023-05-05T11:36:19.155Z,28.00
2023-05-05T11:39:17.348Z,28.10
2023-05-05T11:42:23.908Z,28.10
2023-05-05T11:45:21.979Z,28.40
2023-05-05T11:48:25.958Z,27.80
2023-05-05T11:51:14.117Z,27.20
2023-05-05T11:54:02.887Z,26.70
2023-05-05T11:56:51.148Z,26.70
2023-05-05T11:59:51.309Z,26.70
2023-05-05T12:02:39.461Z,27.20
2023-05-05T12:05:26.803Z,27.50
2023-05-05T12:08:14.793Z,27.40
2023-05-05T12:11:07.929Z,27.70
2023-05-05T12:14:09.544Z,27.60
2023-05-05T12:16:56.978Z,27.70
2023-05-05T12:19:52.666Z,27.80
2023-05-05T12:22:41.093Z,27.70
2023-05-05T12:25:35.780Z,27.30
2023-05-05T12:28:24.798Z,27.50
2023-05-05T12:31:12.125Z,27.60
2023-05-05T12:33:59.293Z,28.00
2023-05-05T12:36:47.714Z,28.40
2023-05-05T12:39:36.274Z,28.40
2023-05-05T12:42:23.569Z,27.90
2023-05-05T12:45:18.099Z,27.80
2023-05-05T12:48:23.145Z,27.60
2023-05-05T12:51:23.601Z,27.60
2023-05-05T12:54:11.782Z,27.60
2023-05-05T12:57:11.131Z,27.00
2023-05-05T12:59:58.298Z,27.50
2023-05-05T13:02:48.182Z,28.10
2023-05-05T13:05:41.013Z,28.70
2023-05-05T13:08:42.540Z,28.80
2023-05-05T13:11:29.669Z,28.50
2023-05-05T13:14:17.673Z,28.50
2023-05-05T13:17:05.149Z,28.50
2023-05-05T13:19:54.193Z,28.50
2023-05-05T13:22:41.543Z,28.40
2023-05-05T13:25:29.142Z,28.20
2023-05-05T13:28:16.264Z,27.90
2023-05-05T13:31:03.453Z,27.90
2023-05-05T13:33:50.842Z,27.30
2023-05-05T13:36:40.229Z,26.60
2023-05-05T13:39:27.409Z,26.30
2023-05-05T13:42:14.985Z,26.30
2023-05-05T13:45:02.184Z,26.30
2023-05-05T13:47:50.412Z,26.30
2023-05-05T13:50:37.872Z,26.30
2023-05-05T13:53:26.763Z,26.90
2023-05-05T13:56:13.977Z,27.20
2023-05-05T13:59:02.463Z,26.80
2023-05-05T14:01:49.568Z,26.50
2023-05-05T14:04:37.401Z,26.60
2023-05-05T14:07:24.944Z,26.50
2023-05-05T14:10:13.640Z,26.20
2023-05-05T14:13:01.304Z,26.00
2023-05-05T14:15:50.239Z,25.70
2023-05-05T14:18:37.402Z,25.50
2023-05-05T14:21:24.649Z,25.50
2023-05-05T14:24:11.940Z,25.60
2023-05-05T14:27:00.622Z,25.40
2023-05-05T14:29:48.301Z,25.20
2023-05-05T14:32:35.707Z,24.90
2023-05-05T14:35:22.831Z,24.80
2023-05-05T14:38:10.067Z,24.50
2023-05-05T14:40:58.206Z,24.40
2023-05-05T14:43:46.722Z,24.40
2023-05-05T14:46:37.037Z,24.50
2023-05-05T14:49:24.960Z,24.40
2023-05-05T14:52:12.614Z,24.40
2023-05-05T14:54:59.780Z,24.30
2023-05-05T14:57:47.844Z,24.30
2023-05-05T15:00:36.419Z,24.40
2023-05-05T15:03:24.645Z,24.60
2023-05-05T15:06:12.371Z,24.80
2023-05-05T15:08:59.619Z,24.90
2023-05-05T15:11:47.135Z,24.80
2023-05-05T15:14:34.362Z,24.80
2023-05-05T15:17:23.141Z,24.90
2023-05-05T15:20:11.640Z,24.80
2023-05-05T15:22:58.870Z,24.80
2023-05-05T15:25:46.742Z,24.80
2023-05-05T15:28:33.982Z,24.80
2023-05-05T15:31:21.165Z,24.70
2023-05-05T15:34:09.621Z,24.70
2023-05-05T15:36:57.240Z,24.90
2023-05-05T15:39:44.504Z,25.00
2023-05-05T15:42:34.150Z,25.20
2023-05-05T15:45:21.752Z,25.40
2023-05-05T15:48:09.031Z,25.40
2023-05-05T15:50:58.021Z,25.10
2023-05-05T15:53:45.294Z,25.00
2023-05-05T15:56:33.033Z,25.00
2023-05-05T15:59:20.784Z,24.70
2023-05-05T16:02:08.470Z,24.30
2023-05-05T16:04:55.619Z,24.00
2023-05-05T16:07:44.967Z,24.00
2023-05-05T16:10:32.088Z,24.00
2023-05-05T16:13:19.654Z,24.00
2023-05-05T16:16:07.494Z,23.90
2023-05-05T16:18:55.580Z,23.70
2023-05-05T16:21:43.281Z,23.60
2023-05-05T16:24:32.505Z,23.50
2023-05-05T16:27:19.645Z,23.50
2023-05-05T16:30:09.379Z,23.50
2023-05-05T16:32:56.565Z,23.50
2023-05-05T16:35:44.786Z,23.50
2023-05-05T16:38:31.889Z,23.30
2023-05-05T16:41:22.506Z,23.10
2023-05-05T16:44:09.793Z,22.90
2023-05-05T16:46:58.735Z,22.80
2023-05-05T16:49:45.961Z,22.80
2023-05-05T16:52:34.040Z,22.70
2023-05-05T16:55:21.286Z,22.50
2023-05-05T16:58:10.637Z,22.40
2023-05-05T17:00:57.847Z,22.40
2023-05-05T17:03:45.892Z,22.40
2023-05-05T17:06:33.304Z,22.30
2023-05-05T17:09:25.290Z,22.20
2023-05-05T17:12:12.518Z,22.20
2023-05-05T17:15:02.717Z,22.10
2023-05-05T17:17:49.991Z,22.00
2023-05-05T17:20:38.077Z,22.00
2023-05-05T17:23:25.325Z,22.00
2023-05-05T17:26:13.562Z,21.90
2023-05-05T17:29:00.722Z,21.90
2023-05-05T17:31:50.203Z,21.70
2023-05-05T17:34:37.585Z,21.60
2023-05-05T17:37:25.753Z,21.60
2023-05-05T17:40:13.052Z,21.50
2023-05-05T17:43:00.780Z,21.30
2023-05-05T17:45:47.968Z,21.20
2023-05-05T17:48:36.956Z,21.20
2023-05-05T17:51:24.141Z,21.10
2023-05-05T17:54:11.718Z,21.00
2023-05-05T17:56:59.617Z,21.00
2023-05-05T17:59:47.506Z,20.90
2023-05-05T18:02:36.966Z,20.80
2023-05-05T18:05:25.725Z,20.70
2023-05-05T18:08:12.968Z,20.60
2023-05-05T18:11:00.279Z,20.60
2023-05-05T18:13:47.638Z,20.60
2023-05-05T18:16:34.918Z,20.60
2023-05-05T18:19:23.304Z,20.50
2023-05-05T18:22:12.032Z,20.50
2023-05-05T18:24:59.737Z,20.50
2023-05-05T18:27:46.941Z,20.50
2023-05-05T18:30:34.149Z,20.40
2023-05-05T18:33:21.979Z,20.50
2023-05-05T18:36:09.204Z,20.50
2023-05-05T18:38:58.820Z,20.50
2023-05-05T18:41:46.196Z,20.50
2023-05-05T18:44:35.210Z,20.50
2023-05-05T18:47:22.385Z,20.30
2023-05-05T18:50:10.549Z,20.40
2023-05-05T18:52:59.038Z,20.50
2023-05-05T18:55:48.165Z,19.00
2023-05-05T18:58:35.343Z,17.80
2023-05-05T19:01:24.049Z,12.40
2023-05-05T19:04:26.777Z,10.50
2023-05-05T19:07:27.917Z,10.60
2023-05-05T19:10:22.151Z,10.90
2023-05-05T19:13:11.238Z,11.20
2023-05-05T19:15:58.607Z,11.20
2023-05-05T19:18:45.870Z,11.30
2023-05-05T19:21:33.055Z,11.50
2023-05-05T19:24:20.793Z,11.70
2023-05-05T19:30:01.837Z,11.70
2023-05-05T19:32:49.034Z,11.70
2023-05-05T19:35:36.671Z,11.50
2023-05-05T19:38:23.966Z,11.50
2023-05-05T19:41:11.705Z,11.60
2023-05-05T19:43:58.899Z,11.70
2023-05-05T19:46:48.292Z,11.90
2023-05-05T19:49:36.068Z,12.20
2023-05-05T19:52:23.242Z,12.50
2023-05-05T19:55:11.343Z,12.50
2023-05-05T19:57:58.552Z,12.40
2023-05-05T20:00:46.254Z,12.40
2023-05-05T20:03:34.826Z,12.30
2023-05-05T20:06:23.400Z,12.20
2023-05-05T20:09:11.072Z,12.10
2023-05-05T20:11:59.348Z,12.20
2023-05-05T20:14:47.197Z,12.10
2023-05-05T20:17:34.905Z,12.00
2023-05-05T20:20:23.468Z,12.00
2023-05-05T20:23:11.523Z,12.00
2023-05-05T20:25:59.061Z,12.10
2023-05-05T20:28:46.702Z,12.10
2023-05-05T20:31:34.964Z,12.20
2023-05-05T20:34:25.390Z,12.20
2023-05-05T20:37:14.109Z,12.20
2023-05-05T20:40:02.211Z,12.20
2023-05-05T20:42:50.214Z,12.30
2023-05-05T20:45:38.300Z,12.40
2023-05-05T20:48:25.660Z,12.50
2023-05-05T20:51:13.724Z,12.40
2023-05-05T20:54:02.469Z,12.50
2023-05-05T20:56:51.190Z,12.50
2023-05-05T20:59:38.395Z,12.30
2023-05-05T21:02:26.459Z,12.20
2023-05-05T21:05:14.733Z,12.30
2023-05-05T21:08:02.438Z,12.30
2023-05-05T21:10:51.439Z,12.40
2023-05-05T21:13:39.089Z,12.40
2023-05-05T21:16:26.768Z,12.50
2023-05-05T21:19:13.963Z,12.50
2023-05-05T21:22:02.663Z,12.60
2023-05-05T21:24:49.810Z,12.60
2023-05-05T21:27:39.351Z,12.50
2023-05-05T21:30:26.948Z,12.50
2023-05-05T21:33:14.977Z,12.50
2023-05-05T21:36:02.090Z,12.60
2023-05-05T21:38:50.195Z,12.60
2023-05-05T21:41:37.364Z,12.60
2023-05-05T21:44:26.878Z,12.60
2023-05-05T21:47:14.532Z,12.50
2023-05-05T21:50:01.701Z,12.60
2023-05-05T21:52:49.706Z,12.60
2023-05-05T21:55:36.863Z,12.60
2023-05-05T21:58:27.656Z,12.60
2023-05-05T22:01:16.168Z,12.70
2023-05-05T22:04:04.781Z,12.70
2023-05-05T22:06:52.214Z,12.80
2023-05-05T22:09:40.431Z,12.80
2023-05-05T22:12:28.032Z,12.80
2023-05-05T22:15:15.933Z,12.80
2023-05-05T22:18:06.369Z,12.80
2023-05-05T22:20:53.529Z,12.80
2023-05-05T22:23:44.248Z,12.90
2023-05-05T22:26:31.404Z,12.80
2023-05-05T22:29:19.444Z,12.80
2023-05-05T22:32:07.961Z,12.70
2023-05-05T22:34:56.964Z,12.70
2023-05-05T22:37:44.120Z,12.70
2023-05-05T22:40:32.322Z,12.70
2023-05-05T22:43:19.485Z,12.60
2023-05-05T22:46:07.652Z,12.60
2023-05-05T22:48:55.359Z,12.60
2023-05-05T22:51:44.816Z,12.60
2023-05-05T22:54:31.951Z,12.50
2023-05-05T22:57:20.008Z,12.50
2023-05-05T23:00:10.862Z,12.50
2023-05-05T23:02:58.978Z,12.50
2023-05-05T23:05:46.153Z,12.50
2023-05-05T23:08:35.677Z,12.40
2023-05-05T23:11:22.853Z,12.30
2023-05-05T23:14:10.956Z,12.20
2023-05-05T23:16:58.781Z,12.20
2023-05-05T23:19:48.355Z,12.10
2023-05-05T23:22:35.526Z,12.10
2023-05-05T23:25:24.885Z,12.20
2023-05-05T23:28:12.021Z,12.10
2023-05-05T23:31:00.079Z,12.10
2023-05-05T23:33:47.268Z,12.10
2023-05-05T23:36:35.305Z,12.10
2023-05-05T23:39:22.499Z,12.10
2023-05-05T23:42:11.826Z,12.10
2023-05-05T23:44:59.001Z,12.00
2023-05-05T23:47:47.299Z,12.10
2023-05-05T23:50:34.885Z,12.00
2023-05-05T23:53:22.064Z,12.00
2023-05-05T23:56:10.204Z,12.10
2023-05-05T23:58:59.201Z,12.10
